sensor_id;sensor_type;location;lat;lon;timestamp;temperature;humidity
72865;DHT22;61000;48.120;11.548;2023-02-12T00:00:42;4.60;99.90
72865;DHT22;61000;48.120;11.548;2023-02-12T00:03:09;4.60;99.90
72865;DHT22;61000;48.120;11.548;2023-02-12T00:05:38;4.60;99.90
72865;DHT22;61000;48.120;11.548;2023-02-12T00:08:06;4.60;99.90
72865;DHT22;61000;48.120;11.548;2023-02-12T00:10:45;4.60;99.90
72865;DHT22;61000;48.120;11.548;2023-02-12T00:13:12;4.60;99.90
72865;DHT22;61000;48.120;11.548;2023-02-12T00:15:40;4.60;99.90
72865;DHT22;61000;48.120;11.548;2023-02-12T00:18:07;4.60;99.90
72865;DHT22;61000;48.120;11.548;2023-02-12T00:20:34;4.60;99.90
72865;DHT22;61000;48.120;11.548;2023-02-12T00:23:02;4.70;99.90
72865;DHT22;61000;48.120;11.548;2023-02-12T00:25:29;4.70;99.90
72865;DHT22;61000;48.120;11.548;2023-02-12T00:27:56;4.70;99.90
72865;DHT22;61000;48.120;11.548;2023-02-12T00:30:24;4.70;99.90
72865;DHT22;61000;48.120;11.548;2023-02-12T00:32:54;4.60;99.90
72865;DHT22;61000;48.120;11.548;2023-02-12T00:35:21;4.60;99.90
72865;DHT22;61000;48.120;11.548;2023-02-12T00:37:49;4.60;99.90
72865;DHT22;61000;48.120;11.548;2023-02-12T00:40:17;4.60;99.90
72865;DHT22;61000;48.120;11.548;2023-02-12T00:42:44;4.60;99.90
72865;DHT22;61000;48.120;11.548;2023-02-12T00:45:11;4.60;99.90
72865;DHT22;61000;48.120;11.548;2023-02-12T00:47:37;4.60;99.90
72865;DHT22;61000;48.120;11.548;2023-02-12T00:50:06;4.60;99.90
72865;DHT22;61000;48.120;11.548;2023-02-12T00:52:32;4.60;99.90
72865;DHT22;61000;48.120;11.548;2023-02-12T00:54:59;4.50;99.90
72865;DHT22;61000;48.120;11.548;2023-02-12T00:57:27;4.60;99.90
72865;DHT22;61000;48.120;11.548;2023-02-12T00:59:55;4.50;99.90
72865;DHT22;61000;48.120;11.548;2023-02-12T01:02:22;4.50;99.90
72865;DHT22;61000;48.120;11.548;2023-02-12T01:04:49;4.60;99.90
72865;DHT22;61000;48.120;11.548;2023-02-12T01:07:16;4.60;99.90
72865;DHT22;61000;48.120;11.548;2023-02-12T01:09:43;4.60;99.90
72865;DHT22;61000;48.120;11.548;2023-02-12T01:12:10;4.50;99.90
72865;DHT22;61000;48.120;11.548;2023-02-12T01:14:38;4.60;99.90
72865;DHT22;61000;48.120;11.548;2023-02-12T01:17:07;4.50;99.90
72865;DHT22;61000;48.120;11.548;2023-02-12T01:19:34;4.50;99.90
72865;DHT22;61000;48.120;11.548;2023-02-12T01:22:01;4.50;99.90
72865;DHT22;61000;48.120;11.548;2023-02-12T01:24:28;4.50;99.90
72865;DHT22;61000;48.120;11.548;2023-02-12T01:26:57;4.50;99.90
72865;DHT22;61000;48.120;11.548;2023-02-12T01:29:24;4.50;99.90
72865;DHT22;61000;48.120;11.548;2023-02-12T01:31:52;4.50;99.90
72865;DHT22;61000;48.120;11.548;2023-02-12T01:34:19;4.40;99.90
72865;DHT22;61000;48.120;11.548;2023-02-12T01:36:46;4.50;99.90
72865;DHT22;61000;48.120;11.548;2023-02-12T01:39:13;4.40;99.90
72865;DHT22;61000;48.120;11.548;2023-02-12T01:41:42;4.40;99.90
72865;DHT22;61000;48.120;11.548;2023-02-12T01:44:12;4.40;99.90
72865;DHT22;61000;48.120;11.548;2023-02-12T01:46:41;4.40;99.90
72865;DHT22;61000;48.120;11.548;2023-02-12T01:49:12;4.40;99.90
72865;DHT22;61000;48.120;11.548;2023-02-12T01:51:40;4.40;99.90
72865;DHT22;61000;48.120;11.548;2023-02-12T01:54:09;4.40;99.90
72865;DHT22;61000;48.120;11.548;2023-02-12T01:56:37;4.40;99.90
72865;DHT22;61000;48.120;11.548;2023-02-12T01:59:05;4.40;99.90
72865;DHT22;61000;48.120;11.548;2023-02-12T02:01:32;4.40;99.90
72865;DHT22;61000;48.120;11.548;2023-02-12T02:04:03;4.40;99.90
72865;DHT22;61000;48.120;11.548;2023-02-12T02:06:34;4.40;99.90
72865;DHT22;61000;48.120;11.548;2023-02-12T02:09:03;4.40;99.90
72865;DHT22;61000;48.120;11.548;2023-02-12T02:11:31;4.40;99.90
72865;DHT22;61000;48.120;11.548;2023-02-12T02:14:15;4.40;99.90
72865;DHT22;61000;48.120;11.548;2023-02-12T02:17:29;4.40;99.90
72865;DHT22;61000;48.120;11.548;2023-02-12T02:26:32;4.30;99.90
72865;DHT22;61000;48.120;11.548;2023-02-12T02:29:19;4.30;99.90
72865;DHT22;61000;48.120;11.548;2023-02-12T02:31:56;4.30;99.90
72865;DHT22;61000;48.120;11.548;2023-02-12T02:34:32;4.30;99.90
72865;DHT22;61000;48.120;11.548;2023-02-12T02:37:09;4.30;99.90
72865;DHT22;61000;48.120;11.548;2023-02-12T02:39:40;4.30;99.90
72865;DHT22;61000;48.120;11.548;2023-02-12T02:42:13;4.30;99.90
72865;DHT22;61000;48.120;11.548;2023-02-12T02:44:47;4.20;99.90
72865;DHT22;61000;48.120;11.548;2023-02-12T02:47:19;4.30;99.90
72865;DHT22;61000;48.120;11.548;2023-02-12T02:49:49;4.20;99.90
72865;DHT22;61000;48.120;11.548;2023-02-12T02:52:22;4.20;99.90
72865;DHT22;61000;48.120;11.548;2023-02-12T02:54:55;4.20;99.90
72865;DHT22;61000;48.120;11.548;2023-02-12T02:57:27;4.20;99.90
72865;DHT22;61000;48.120;11.548;2023-02-12T03:00:00;4.20;99.90
72865;DHT22;61000;48.120;11.548;2023-02-12T03:02:34;4.10;99.90
72865;DHT22;61000;48.120;11.548;2023-02-12T03:05:05;4.10;99.90
72865;DHT22;61000;48.120;11.548;2023-02-12T03:07:36;4.10;99.90
72865;DHT22;61000;48.120;11.548;2023-02-12T03:10:09;4.10;99.90
72865;DHT22;61000;48.120;11.548;2023-02-12T03:12:42;4.10;99.90
72865;DHT22;61000;48.120;11.548;2023-02-12T03:15:13;4.10;99.90
72865;DHT22;61000;48.120;11.548;2023-02-12T03:17:47;4.10;99.90
72865;DHT22;61000;48.120;11.548;2023-02-12T03:20:17;4.10;99.90
72865;DHT22;61000;48.120;11.548;2023-02-12T03:22:48;4.00;99.90
72865;DHT22;61000;48.120;11.548;2023-02-12T03:25:18;4.00;99.90
72865;DHT22;61000;48.120;11.548;2023-02-12T03:27:49;4.00;99.90
72865;DHT22;61000;48.120;11.548;2023-02-12T03:30:18;4.00;99.90
72865;DHT22;61000;48.120;11.548;2023-02-12T03:32:53;4.00;99.90
72865;DHT22;61000;48.120;11.548;2023-02-12T03:35:29;4.00;99.90
72865;DHT22;61000;48.120;11.548;2023-02-12T03:38:01;4.00;99.90
72865;DHT22;61000;48.120;11.548;2023-02-12T03:40:33;4.00;99.90
72865;DHT22;61000;48.120;11.548;2023-02-12T03:43:03;4.00;99.90
72865;DHT22;61000;48.120;11.548;2023-02-12T03:45:40;4.00;99.90
72865;DHT22;61000;48.120;11.548;2023-02-12T03:48:17;4.00;99.90
72865;DHT22;61000;48.120;11.548;2023-02-12T03:50:49;4.00;99.90
72865;DHT22;61000;48.120;11.548;2023-02-12T03:53:17;4.00;99.90
72865;DHT22;61000;48.120;11.548;2023-02-12T03:55:47;4.00;99.90
72865;DHT22;61000;48.120;11.548;2023-02-12T03:58:20;4.00;99.90
72865;DHT22;61000;48.120;11.548;2023-02-12T04:00:49;4.00;99.90
72865;DHT22;61000;48.120;11.548;2023-02-12T04:03:17;4.00;99.90
72865;DHT22;61000;48.120;11.548;2023-02-12T04:05:44;4.00;99.90
72865;DHT22;61000;48.120;11.548;2023-02-12T04:08:12;4.10;99.90
72865;DHT22;61000;48.120;11.548;2023-02-12T04:10:45;4.00;99.90
72865;DHT22;61000;48.120;11.548;2023-02-12T04:13:22;4.00;99.90
72865;DHT22;61000;48.120;11.548;2023-02-12T04:16:04;4.00;99.90
72865;DHT22;61000;48.120;11.548;2023-02-12T04:18:40;4.00;99.90
72865;DHT22;61000;48.120;11.548;2023-02-12T04:21:12;4.10;99.90
72865;DHT22;61000;48.120;11.548;2023-02-12T04:23:48;4.10;99.90
72865;DHT22;61000;48.120;11.548;2023-02-12T04:26:21;4.10;99.90
72865;DHT22;61000;48.120;11.548;2023-02-12T04:28:59;4.10;99.90
72865;DHT22;61000;48.120;11.548;2023-02-12T04:31:32;4.10;99.90
72865;DHT22;61000;48.120;11.548;2023-02-12T04:34:08;4.10;99.90
72865;DHT22;61000;48.120;11.548;2023-02-12T04:36:40;4.10;99.90
72865;DHT22;61000;48.120;11.548;2023-02-12T04:39:10;4.00;99.90
72865;DHT22;61000;48.120;11.548;2023-02-12T04:41:40;4.10;99.90
72865;DHT22;61000;48.120;11.548;2023-02-12T04:44:15;4.10;99.90
72865;DHT22;61000;48.120;11.548;2023-02-12T04:46:42;4.10;99.90
72865;DHT22;61000;48.120;11.548;2023-02-12T04:49:13;4.10;99.90
72865;DHT22;61000;48.120;11.548;2023-02-12T04:51:41;4.10;99.90
72865;DHT22;61000;48.120;11.548;2023-02-12T04:54:08;4.10;99.90
72865;DHT22;61000;48.120;11.548;2023-02-12T04:56:35;4.00;99.90
72865;DHT22;61000;48.120;11.548;2023-02-12T04:59:02;4.00;99.90
72865;DHT22;61000;48.120;11.548;2023-02-12T05:01:29;4.00;99.90
72865;DHT22;61000;48.120;11.548;2023-02-12T05:03:56;4.00;99.90
72865;DHT22;61000;48.120;11.548;2023-02-12T05:06:24;4.00;99.90
72865;DHT22;61000;48.120;11.548;2023-02-12T05:08:51;4.00;99.90
72865;DHT22;61000;48.120;11.548;2023-02-12T05:11:19;4.00;99.90
72865;DHT22;61000;48.120;11.548;2023-02-12T05:13:47;4.00;99.90
72865;DHT22;61000;48.120;11.548;2023-02-12T05:16:15;4.00;99.90
72865;DHT22;61000;48.120;11.548;2023-02-12T05:18:43;4.00;99.90
72865;DHT22;61000;48.120;11.548;2023-02-12T05:21:09;4.00;99.90
72865;DHT22;61000;48.120;11.548;2023-02-12T05:23:38;4.00;99.90
72865;DHT22;61000;48.120;11.548;2023-02-12T05:26:09;4.00;99.90
72865;DHT22;61000;48.120;11.548;2023-02-12T05:28:36;4.00;99.90
72865;DHT22;61000;48.120;11.548;2023-02-12T05:31:05;4.00;99.90
72865;DHT22;61000;48.120;11.548;2023-02-12T05:33:32;4.00;99.90
72865;DHT22;61000;48.120;11.548;2023-02-12T05:36:03;3.90;99.90
72865;DHT22;61000;48.120;11.548;2023-02-12T05:38:30;4.00;99.90
72865;DHT22;61000;48.120;11.548;2023-02-12T05:41:02;4.00;99.90
72865;DHT22;61000;48.120;11.548;2023-02-12T05:43:29;4.00;99.90
72865;DHT22;61000;48.120;11.548;2023-02-12T05:45:57;4.00;99.90
72865;DHT22;61000;48.120;11.548;2023-02-12T05:48:24;4.00;99.90
72865;DHT22;61000;48.120;11.548;2023-02-12T05:50:51;4.00;99.90
72865;DHT22;61000;48.120;11.548;2023-02-12T05:53:18;3.90;99.90
72865;DHT22;61000;48.120;11.548;2023-02-12T05:55:47;3.90;99.90
72865;DHT22;61000;48.120;11.548;2023-02-12T05:58:15;3.90;99.90
72865;DHT22;61000;48.120;11.548;2023-02-12T06:00:42;4.00;99.90
72865;DHT22;61000;48.120;11.548;2023-02-12T06:03:08;3.90;99.90
72865;DHT22;61000;48.120;11.548;2023-02-12T06:05:35;4.00;99.90
72865;DHT22;61000;48.120;11.548;2023-02-12T06:08:02;4.00;99.90
72865;DHT22;61000;48.120;11.548;2023-02-12T06:10:29;4.00;99.90
72865;DHT22;61000;48.120;11.548;2023-02-12T06:12:56;4.00;99.90
72865;DHT22;61000;48.120;11.548;2023-02-12T06:15:24;4.00;99.90
72865;DHT22;61000;48.120;11.548;2023-02-12T06:17:51;4.00;99.90
72865;DHT22;61000;48.120;11.548;2023-02-12T06:20:18;3.90;99.90
72865;DHT22;61000;48.120;11.548;2023-02-12T06:22:45;3.90;99.90
72865;DHT22;61000;48.120;11.548;2023-02-12T06:25:12;3.80;99.90
72865;DHT22;61000;48.120;11.548;2023-02-12T06:27:39;3.70;99.90
72865;DHT22;61000;48.120;11.548;2023-02-12T06:30:06;3.70;99.90
72865;DHT22;61000;48.120;11.548;2023-02-12T06:32:35;3.70;99.90
72865;DHT22;61000;48.120;11.548;2023-02-12T06:35:02;3.70;99.90
72865;DHT22;61000;48.120;11.548;2023-02-12T06:37:29;3.70;99.90
72865;DHT22;61000;48.120;11.548;2023-02-12T06:39:57;3.70;99.90
72865;DHT22;61000;48.120;11.548;2023-02-12T06:42:24;3.80;99.90
72865;DHT22;61000;48.120;11.548;2023-02-12T06:44:50;3.80;99.90
72865;DHT22;61000;48.120;11.548;2023-02-12T06:47:17;3.80;99.90
72865;DHT22;61000;48.120;11.548;2023-02-12T06:49:45;3.80;99.90
72865;DHT22;61000;48.120;11.548;2023-02-12T06:52:12;3.70;99.90
72865;DHT22;61000;48.120;11.548;2023-02-12T06:54:39;3.70;99.90
72865;DHT22;61000;48.120;11.548;2023-02-12T06:57:06;3.70;99.90
72865;DHT22;61000;48.120;11.548;2023-02-12T06:59:34;3.70;99.90
72865;DHT22;61000;48.120;11.548;2023-02-12T07:02:01;3.80;99.90
72865;DHT22;61000;48.120;11.548;2023-02-12T07:04:28;3.80;99.90
72865;DHT22;61000;48.120;11.548;2023-02-12T07:06:56;3.80;99.90
72865;DHT22;61000;48.120;11.548;2023-02-12T07:09:23;3.80;99.90
72865;DHT22;61000;48.120;11.548;2023-02-12T07:11:50;3.90;99.90
72865;DHT22;61000;48.120;11.548;2023-02-12T07:14:16;3.90;99.90
72865;DHT22;61000;48.120;11.548;2023-02-12T07:16:43;3.90;99.90
72865;DHT22;61000;48.120;11.548;2023-02-12T07:19:12;3.90;99.90
72865;DHT22;61000;48.120;11.548;2023-02-12T07:21:39;3.90;99.90
72865;DHT22;61000;48.120;11.548;2023-02-12T07:24:09;3.90;99.90
72865;DHT22;61000;48.120;11.548;2023-02-12T07:26:36;3.90;99.90
72865;DHT22;61000;48.120;11.548;2023-02-12T07:29:03;3.90;99.90
72865;DHT22;61000;48.120;11.548;2023-02-12T07:31:30;3.90;99.90
72865;DHT22;61000;48.120;11.548;2023-02-12T07:33:58;3.90;99.90
72865;DHT22;61000;48.120;11.548;2023-02-12T07:36:29;4.00;99.90
72865;DHT22;61000;48.120;11.548;2023-02-12T07:38:57;4.00;99.90
72865;DHT22;61000;48.120;11.548;2023-02-12T07:41:29;4.00;99.90
72865;DHT22;61000;48.120;11.548;2023-02-12T07:43:58;4.00;99.90
72865;DHT22;61000;48.120;11.548;2023-02-12T07:46:27;4.00;99.90
72865;DHT22;61000;48.120;11.548;2023-02-12T07:48:55;4.00;99.90
72865;DHT22;61000;48.120;11.548;2023-02-12T07:51:23;4.00;99.90
72865;DHT22;61000;48.120;11.548;2023-02-12T07:53:50;4.00;99.90
72865;DHT22;61000;48.120;11.548;2023-02-12T07:56:19;4.00;99.90
72865;DHT22;61000;48.120;11.548;2023-02-12T07:58:49;4.10;99.90
72865;DHT22;61000;48.120;11.548;2023-02-12T08:01:17;4.10;99.90
72865;DHT22;61000;48.120;11.548;2023-02-12T08:03:45;4.10;99.90
72865;DHT22;61000;48.120;11.548;2023-02-12T08:06:14;4.10;99.90
72865;DHT22;61000;48.120;11.548;2023-02-12T08:08:42;4.20;99.90
72865;DHT22;61000;48.120;11.548;2023-02-12T08:11:11;4.20;99.90
72865;DHT22;61000;48.120;11.548;2023-02-12T08:13:38;4.30;99.90
72865;DHT22;61000;48.120;11.548;2023-02-12T08:16:08;4.30;99.90
72865;DHT22;61000;48.120;11.548;2023-02-12T08:18:35;4.30;99.90
72865;DHT22;61000;48.120;11.548;2023-02-12T08:21:03;4.40;99.90
72865;DHT22;61000;48.120;11.548;2023-02-12T08:23:30;4.40;99.90
72865;DHT22;61000;48.120;11.548;2023-02-12T08:26:05;4.40;99.90
72865;DHT22;61000;48.120;11.548;2023-02-12T08:28:32;4.40;99.90
72865;DHT22;61000;48.120;11.548;2023-02-12T08:31:00;4.40;99.90
72865;DHT22;61000;48.120;11.548;2023-02-12T08:33:28;4.50;99.90
72865;DHT22;61000;48.120;11.548;2023-02-12T08:36:06;4.50;99.90
72865;DHT22;61000;48.120;11.548;2023-02-12T08:38:34;4.50;99.90
72865;DHT22;61000;48.120;11.548;2023-02-12T08:41:03;4.50;99.90
72865;DHT22;61000;48.120;11.548;2023-02-12T08:43:30;4.50;99.90
72865;DHT22;61000;48.120;11.548;2023-02-12T08:46:06;4.50;99.90
72865;DHT22;61000;48.120;11.548;2023-02-12T08:48:35;4.60;99.90
72865;DHT22;61000;48.120;11.548;2023-02-12T08:51:04;4.60;99.90
72865;DHT22;61000;48.120;11.548;2023-02-12T08:53:31;4.60;99.90
72865;DHT22;61000;48.120;11.548;2023-02-12T08:55:58;4.60;99.90
72865;DHT22;61000;48.120;11.548;2023-02-12T08:58:25;4.60;99.90
72865;DHT22;61000;48.120;11.548;2023-02-12T09:00:52;4.70;99.90
72865;DHT22;61000;48.120;11.548;2023-02-12T09:03:19;4.80;99.90
72865;DHT22;61000;48.120;11.548;2023-02-12T09:05:47;4.80;99.90
72865;DHT22;61000;48.120;11.548;2023-02-12T09:08:14;4.80;99.90
72865;DHT22;61000;48.120;11.548;2023-02-12T09:10:42;4.90;99.90
72865;DHT22;61000;48.120;11.548;2023-02-12T09:13:10;4.90;99.90
72865;DHT22;61000;48.120;11.548;2023-02-12T09:15:38;5.00;99.90
72865;DHT22;61000;48.120;11.548;2023-02-12T09:18:05;5.10;99.90
72865;DHT22;61000;48.120;11.548;2023-02-12T09:20:32;5.10;99.90
72865;DHT22;61000;48.120;11.548;2023-02-12T09:23:01;5.10;99.90
72865;DHT22;61000;48.120;11.548;2023-02-12T09:25:27;5.20;99.90
72865;DHT22;61000;48.120;11.548;2023-02-12T09:27:54;5.20;99.90
72865;DHT22;61000;48.120;11.548;2023-02-12T09:30:21;5.20;99.90
72865;DHT22;61000;48.120;11.548;2023-02-12T09:32:48;5.30;99.90
72865;DHT22;61000;48.120;11.548;2023-02-12T09:35:15;5.40;99.90
72865;DHT22;61000;48.120;11.548;2023-02-12T09:37:43;5.50;99.90
72865;DHT22;61000;48.120;11.548;2023-02-12T09:40:17;5.60;99.90
72865;DHT22;61000;48.120;11.548;2023-02-12T09:43:02;5.70;99.90
72865;DHT22;61000;48.120;11.548;2023-02-12T09:45:34;5.90;99.90
72865;DHT22;61000;48.120;11.548;2023-02-12T09:48:10;6.00;99.90
72865;DHT22;61000;48.120;11.548;2023-02-12T09:50:45;6.00;99.90
72865;DHT22;61000;48.120;11.548;2023-02-12T09:53:16;6.10;99.90
72865;DHT22;61000;48.120;11.548;2023-02-12T09:55:45;6.00;99.90
72865;DHT22;61000;48.120;11.548;2023-02-12T09:58:14;6.00;99.90
72865;DHT22;61000;48.120;11.548;2023-02-12T10:00:42;6.10;99.90
72865;DHT22;61000;48.120;11.548;2023-02-12T10:03:12;6.30;99.90
72865;DHT22;61000;48.120;11.548;2023-02-12T10:05:44;6.30;99.90
72865;DHT22;61000;48.120;11.548;2023-02-12T10:11:23;6.30;99.90
72865;DHT22;61000;48.120;11.548;2023-02-12T10:14:02;6.30;99.90
72865;DHT22;61000;48.120;11.548;2023-02-12T10:16:40;6.50;99.90
72865;DHT22;61000;48.120;11.548;2023-02-12T10:19:20;6.60;99.90
72865;DHT22;61000;48.120;11.548;2023-02-12T10:21:57;6.60;99.90
72865;DHT22;61000;48.120;11.548;2023-02-12T10:24:39;6.60;99.90
72865;DHT22;61000;48.120;11.548;2023-02-12T10:27:16;6.70;99.90
72865;DHT22;61000;48.120;11.548;2023-02-12T10:29:45;6.90;99.90
72865;DHT22;61000;48.120;11.548;2023-02-12T10:32:18;6.90;99.90
72865;DHT22;61000;48.120;11.548;2023-02-12T10:34:47;7.10;99.90
72865;DHT22;61000;48.120;11.548;2023-02-12T10:37:23;7.40;99.90
72865;DHT22;61000;48.120;11.548;2023-02-12T10:39:56;7.30;99.90
72865;DHT22;61000;48.120;11.548;2023-02-12T10:42:35;7.30;99.90
72865;DHT22;61000;48.120;11.548;2023-02-12T10:45:04;7.30;99.90
72865;DHT22;61000;48.120;11.548;2023-02-12T10:47:31;7.50;99.90
72865;DHT22;61000;48.120;11.548;2023-02-12T10:50:00;7.60;99.90
72865;DHT22;61000;48.120;11.548;2023-02-12T10:52:35;7.50;99.90
72865;DHT22;61000;48.120;11.548;2023-02-12T10:55:26;7.50;99.90
72865;DHT22;61000;48.120;11.548;2023-02-12T10:57:55;7.60;99.90
72865;DHT22;61000;48.120;11.548;2023-02-12T11:00:26;7.80;99.90
72865;DHT22;61000;48.120;11.548;2023-02-12T11:03:19;8.00;99.90
72865;DHT22;61000;48.120;11.548;2023-02-12T11:05:46;7.90;99.90
72865;DHT22;61000;48.120;11.548;2023-02-12T11:08:30;7.70;99.90
72865;DHT22;61000;48.120;11.548;2023-02-12T11:11:04;7.70;99.90
72865;DHT22;61000;48.120;11.548;2023-02-12T11:13:33;7.90;99.90
72865;DHT22;61000;48.120;11.548;2023-02-12T11:16:01;8.00;99.90
72865;DHT22;61000;48.120;11.548;2023-02-12T11:18:29;8.00;99.90
72865;DHT22;61000;48.120;11.548;2023-02-12T11:20:59;7.90;99.90
72865;DHT22;61000;48.120;11.548;2023-02-12T11:23:29;7.80;99.90
72865;DHT22;61000;48.120;11.548;2023-02-12T11:25:59;7.80;99.90
72865;DHT22;61000;48.120;11.548;2023-02-12T11:28:26;7.90;99.90
72865;DHT22;61000;48.120;11.548;2023-02-12T11:30:57;8.00;99.90
72865;DHT22;61000;48.120;11.548;2023-02-12T11:33:30;8.00;99.90
72865;DHT22;61000;48.120;11.548;2023-02-12T11:35:58;8.00;99.90
72865;DHT22;61000;48.120;11.548;2023-02-12T11:38:32;8.10;99.90
72865;DHT22;61000;48.120;11.548;2023-02-12T11:41:05;8.00;99.90
72865;DHT22;61000;48.120;11.548;2023-02-12T11:43:34;8.00;99.90
72865;DHT22;61000;48.120;11.548;2023-02-12T11:46:06;7.90;99.90
72865;DHT22;61000;48.120;11.548;2023-02-12T11:48:36;7.70;99.90
72865;DHT22;61000;48.120;11.548;2023-02-12T11:51:06;7.70;99.90
72865;DHT22;61000;48.120;11.548;2023-02-12T11:53:36;7.60;99.90
72865;DHT22;61000;48.120;11.548;2023-02-12T11:56:07;7.60;99.90
72865;DHT22;61000;48.120;11.548;2023-02-12T11:58:36;7.60;99.90
72865;DHT22;61000;48.120;11.548;2023-02-12T12:01:09;7.60;99.90
72865;DHT22;61000;48.120;11.548;2023-02-12T12:03:44;7.60;99.90
72865;DHT22;61000;48.120;11.548;2023-02-12T12:06:23;7.60;99.90
72865;DHT22;61000;48.120;11.548;2023-02-12T12:08:55;7.50;99.90
72865;DHT22;61000;48.120;11.548;2023-02-12T12:11:27;7.60;99.90
72865;DHT22;61000;48.120;11.548;2023-02-12T12:14:01;7.70;99.90
72865;DHT22;61000;48.120;11.548;2023-02-12T12:16:35;7.80;99.90
72865;DHT22;61000;48.120;11.548;2023-02-12T12:19:23;8.00;99.90
72865;DHT22;61000;48.120;11.548;2023-02-12T12:22:21;8.00;99.90
72865;DHT22;61000;48.120;11.548;2023-02-12T12:24:52;7.90;99.90
72865;DHT22;61000;48.120;11.548;2023-02-12T12:27:26;8.00;99.90
72865;DHT22;61000;48.120;11.548;2023-02-12T12:30:20;8.20;99.90
72865;DHT22;61000;48.120;11.548;2023-02-12T12:32:51;8.10;99.90
72865;DHT22;61000;48.120;11.548;2023-02-12T12:35:25;8.30;99.90
72865;DHT22;61000;48.120;11.548;2023-02-12T12:38:00;8.30;99.90
72865;DHT22;61000;48.120;11.548;2023-02-12T12:40:49;8.40;99.90
72865;DHT22;61000;48.120;11.548;2023-02-12T12:43:28;8.40;99.80
72865;DHT22;61000;48.120;11.548;2023-02-12T12:49:39;8.70;99.30
72865;DHT22;61000;48.120;11.548;2023-02-12T12:52:34;8.70;99.30
72865;DHT22;61000;48.120;11.548;2023-02-12T12:55:16;8.70;99.10
72865;DHT22;61000;48.120;11.548;2023-02-12T12:57:56;8.80;99.00
72865;DHT22;61000;48.120;11.548;2023-02-12T13:00:56;8.80;99.00
72865;DHT22;61000;48.120;11.548;2023-02-12T13:03:42;8.90;98.60
72865;DHT22;61000;48.120;11.548;2023-02-12T13:09:22;8.90;98.60
72865;DHT22;61000;48.120;11.548;2023-02-12T13:12:08;8.90;98.70
72865;DHT22;61000;48.120;11.548;2023-02-12T13:14:44;9.10;98.50
72865;DHT22;61000;48.120;11.548;2023-02-12T13:17:21;9.40;98.10
72865;DHT22;61000;48.120;11.548;2023-02-12T13:19:59;9.40;98.20
72865;DHT22;61000;48.120;11.548;2023-02-12T13:22:34;9.20;98.60
72865;DHT22;61000;48.120;11.548;2023-02-12T13:25:12;9.10;98.90
72865;DHT22;61000;48.120;11.548;2023-02-12T13:27:41;9.00;99.10
72865;DHT22;61000;48.120;11.548;2023-02-12T13:30:18;8.90;99.20
72865;DHT22;61000;48.120;11.548;2023-02-12T13:32:50;8.70;99.40
72865;DHT22;61000;48.120;11.548;2023-02-12T13:35:22;8.70;99.60
72865;DHT22;61000;48.120;11.548;2023-02-12T13:37:53;8.80;99.30
72865;DHT22;61000;48.120;11.548;2023-02-12T13:40:22;8.70;99.30
72865;DHT22;61000;48.120;11.548;2023-02-12T13:42:55;8.60;99.50
72865;DHT22;61000;48.120;11.548;2023-02-12T13:45:34;8.60;99.70
72865;DHT22;61000;48.120;11.548;2023-02-12T13:48:27;8.70;99.70
72865;DHT22;61000;48.120;11.548;2023-02-12T13:51:06;8.80;99.70
72865;DHT22;61000;48.120;11.548;2023-02-12T13:53:46;8.80;99.50
72865;DHT22;61000;48.120;11.548;2023-02-12T13:56:26;8.90;99.50
72865;DHT22;61000;48.120;11.548;2023-02-12T13:58:54;9.00;99.50
72865;DHT22;61000;48.120;11.548;2023-02-12T14:01:39;8.80;99.50
72865;DHT22;61000;48.120;11.548;2023-02-12T14:04:23;8.80;99.70
72865;DHT22;61000;48.120;11.548;2023-02-12T14:06:54;8.80;99.80
72865;DHT22;61000;48.120;11.548;2023-02-12T14:09:28;8.70;99.90
72865;DHT22;61000;48.120;11.548;2023-02-12T14:11:57;8.70;99.90
72865;DHT22;61000;48.120;11.548;2023-02-12T14:14:28;8.70;99.70
72865;DHT22;61000;48.120;11.548;2023-02-12T14:16:56;8.70;99.90
72865;DHT22;61000;48.120;11.548;2023-02-12T14:19:56;8.60;99.90
72865;DHT22;61000;48.120;11.548;2023-02-12T14:22:58;8.50;99.90
72865;DHT22;61000;48.120;11.548;2023-02-12T14:25:38;8.30;99.90
72865;DHT22;61000;48.120;11.548;2023-02-12T14:28:13;8.30;99.90
72865;DHT22;61000;48.120;11.548;2023-02-12T14:30:45;8.30;99.90
72865;DHT22;61000;48.120;11.548;2023-02-12T14:33:32;8.40;99.90
72865;DHT22;61000;48.120;11.548;2023-02-12T14:36:19;8.40;99.90
72865;DHT22;61000;48.120;11.548;2023-02-12T14:39:25;8.40;99.90
72865;DHT22;61000;48.120;11.548;2023-02-12T14:41:54;8.20;99.90
72865;DHT22;61000;48.120;11.548;2023-02-12T14:44:37;8.00;99.90
72865;DHT22;61000;48.120;11.548;2023-02-12T14:47:13;8.00;99.90
72865;DHT22;61000;48.120;11.548;2023-02-12T14:49:44;8.00;99.90
72865;DHT22;61000;48.120;11.548;2023-02-12T14:52:15;8.00;99.90
72865;DHT22;61000;48.120;11.548;2023-02-12T14:54:46;8.00;99.90
72865;DHT22;61000;48.120;11.548;2023-02-12T14:57:23;8.00;99.90
72865;DHT22;61000;48.120;11.548;2023-02-12T14:59:51;7.90;99.90
72865;DHT22;61000;48.120;11.548;2023-02-12T15:02:23;7.80;99.90
72865;DHT22;61000;48.120;11.548;2023-02-12T15:04:52;7.70;99.90
72865;DHT22;61000;48.120;11.548;2023-02-12T15:07:26;7.70;99.90
72865;DHT22;61000;48.120;11.548;2023-02-12T15:09:57;7.70;99.90
72865;DHT22;61000;48.120;11.548;2023-02-12T15:12:36;7.70;99.90
72865;DHT22;61000;48.120;11.548;2023-02-12T15:15:11;7.60;99.90
72865;DHT22;61000;48.120;11.548;2023-02-12T15:17:40;7.60;99.90
72865;DHT22;61000;48.120;11.548;2023-02-12T15:20:18;7.50;99.90
72865;DHT22;61000;48.120;11.548;2023-02-12T15:22:45;7.40;99.90
72865;DHT22;61000;48.120;11.548;2023-02-12T15:25:19;7.60;99.90
72865;DHT22;61000;48.120;11.548;2023-02-12T15:27:49;7.30;99.90
72865;DHT22;61000;48.120;11.548;2023-02-12T15:30:19;7.20;99.90
72865;DHT22;61000;48.120;11.548;2023-02-12T15:32:46;7.20;99.90
72865;DHT22;61000;48.120;11.548;2023-02-12T15:35:22;7.20;99.90
72865;DHT22;61000;48.120;11.548;2023-02-12T15:37:49;7.20;99.90
72865;DHT22;61000;48.120;11.548;2023-02-12T15:40:17;7.10;99.90
72865;DHT22;61000;48.120;11.548;2023-02-12T15:42:53;7.20;99.90
72865;DHT22;61000;48.120;11.548;2023-02-12T15:45:23;7.00;99.90
72865;DHT22;61000;48.120;11.548;2023-02-12T15:48:00;7.00;99.90
72865;DHT22;61000;48.120;11.548;2023-02-12T15:50:29;6.90;99.90
72865;DHT22;61000;48.120;11.548;2023-02-12T15:52:57;6.80;99.90
72865;DHT22;61000;48.120;11.548;2023-02-12T15:55:26;6.80;99.90
72865;DHT22;61000;48.120;11.548;2023-02-12T15:57:57;6.70;99.90
72865;DHT22;61000;48.120;11.548;2023-02-12T16:00:29;6.70;99.90
72865;DHT22;61000;48.120;11.548;2023-02-12T16:02:56;6.60;99.90
72865;DHT22;61000;48.120;11.548;2023-02-12T16:05:23;6.60;99.90
72865;DHT22;61000;48.120;11.548;2023-02-12T16:07:51;6.50;99.90
72865;DHT22;61000;48.120;11.548;2023-02-12T16:10:19;6.50;99.90
72865;DHT22;61000;48.120;11.548;2023-02-12T16:12:46;6.50;99.90